Time;durP1;ratioP1;P1;durP2;ratioP2;P2;SDS_P1;SDS_P2;PMS_P1;PMS_P2;Temp;Humidity;BMP_temperature;BMP_pressure;BME280_temperature;BME280_humidity;BME280_pressure;Samples;Min_cycle;Max_cycle;Signal;HPM_P1;HPM_P2
2023/01/18 00:00:38;;;;;;;91.18;87.68;;;3.00;96.00;;;;;;5062641;28;20071;-78
2023/01/18 00:03:04;;;;;;;90.28;86.85;;;3.10;96.00;;;;;;5062220;28;20025;-77
2023/01/18 00:05:32;;;;;;;88.10;84.70;;;3.10;96.00;;;;;;5057967;28;20033;-77
2023/01/18 00:07:58;;;;;;;93.38;89.78;;;3.10;96.00;;;;;;5062950;28;20036;-78
2023/01/18 00:10:23;;;;;;;89.57;86.18;;;3.10;96.20;;;;;;5052185;28;20299;-77
2023/01/18 00:12:49;;;;;;;88.53;85.13;;;3.10;96.00;;;;;;5051881;28;20040;-77
2023/01/18 00:15:15;;;;;;;90.97;87.47;;;3.10;96.00;;;;;;5054412;28;20037;-77
2023/01/18 00:17:50;;;;;;;92.68;89.18;;;3.20;96.00;;;;;;5054863;28;20091;-78
2023/01/18 00:20:17;;;;;;;90.32;86.90;;;3.20;96.00;;;;;;5058362;28;20363;-77
2023/01/18 00:22:43;;;;;;;93.22;89.68;;;3.20;96.00;;;;;;5059229;28;20469;-78
2023/01/18 00:25:10;;;;;;;91.10;87.60;;;3.20;96.00;;;;;;5055452;28;20025;-77
2023/01/18 00:27:43;;;;;;;93.38;89.88;;;3.20;95.90;;;;;;5058013;28;20060;-77
2023/01/18 00:30:09;;;;;;;93.53;89.97;;;3.20;95.90;;;;;;5060578;28;20036;-78
2023/01/18 00:32:36;;;;;;;94.82;91.22;;;3.20;95.90;;;;;;5045400;28;20029;-77
2023/01/18 00:35:06;;;;;;;97.70;94.00;;;3.10;95.90;;;;;;5064946;28;20021;-78
2023/01/18 00:37:32;;;;;;;94.40;90.80;;;3.10;95.90;;;;;;5066835;28;20463;-78
2023/01/18 00:39:58;;;;;;;93.65;90.05;;;3.10;95.90;;;;;;5065693;28;20047;-79
2023/01/18 00:45:08;;;;;;;96.60;92.97;;;3.00;95.90;;;;;;5063604;28;20056;-78
2023/01/18 00:47:34;;;;;;;101.47;97.68;;;2.90;95.90;;;;;;5064546;28;20033;-78
2023/01/18 00:50:00;;;;;;;99.32;95.57;;;2.90;95.90;;;;;;5063068;28;20122;-78
2023/01/18 00:52:25;;;;;;;99.97;96.18;;;2.90;96.00;;;;;;5064820;28;20037;-78
2023/01/18 00:54:51;;;;;;;97.40;93.70;;;2.80;96.00;;;;;;5064836;28;20505;-78
2023/01/18 00:57:17;;;;;;;99.93;96.13;;;2.90;95.90;;;;;;5065148;28;20068;-78
2023/01/18 00:59:43;;;;;;;97.65;93.95;;;2.80;96.00;;;;;;5060052;28;20083;-78
2023/01/18 01:02:09;;;;;;;96.38;92.70;;;2.80;96.00;;;;;;5064115;28;20029;-79
2023/01/18 01:07:18;;;;;;;98.88;95.07;;;2.80;96.00;;;;;;5070944;28;20040;-78
2023/01/18 01:09:45;;;;;;;96.50;92.80;;;2.90;95.90;;;;;;5066921;28;20025;-78
2023/01/18 01:26:04;;;;;;;93.80;90.20;;;2.60;95.90;;;;;;5070202;28;20417;-78
2023/01/18 01:28:29;;;;;;;96.05;92.35;;;2.50;95.80;;;;;;5069554;28;20017;-78
2023/01/18 01:30:59;;;;;;;95.13;91.53;;;2.50;95.80;;;;;;5068663;28;20052;-78
2023/01/18 01:33:26;;;;;;;94.70;91.10;;;2.50;95.80;;;;;;5065460;28;20045;-78
2023/01/18 01:36:00;;;;;;;95.88;92.22;;;2.50;95.90;;;;;;5067378;28;20025;-77
2023/01/18 01:38:27;;;;;;;94.10;90.53;;;2.50;96.00;;;;;;5061112;28;20036;-78
2023/01/18 01:41:18;;;;;;;93.18;89.68;;;2.60;96.10;;;;;;5061352;28;20057;-78
2023/01/18 01:43:52;;;;;;;95.68;92.07;;;2.60;96.00;;;;;;5058549;28;20049;-78
2023/01/18 01:46:37;;;;;;;97.60;93.90;;;2.70;95.90;;;;;;5060886;28;20025;-78
2023/01/18 01:49:03;;;;;;;93.25;89.75;;;2.60;95.90;;;;;;5056339;28;20036;-79
2023/01/18 01:51:30;;;;;;;94.22;90.72;;;2.60;95.90;;;;;;5058937;28;20036;-78
2023/01/18 01:54:00;;;;;;;94.75;91.15;;;2.60;95.90;;;;;;5061310;28;20037;-79
2023/01/18 01:56:26;;;;;;;86.82;83.53;;;2.60;96.00;;;;;;5062718;28;20036;-78
2023/01/18 01:58:57;;;;;;;87.57;84.28;;;2.70;96.00;;;;;;5063362;28;20413;-78
2023/01/18 02:01:23;;;;;;;92.20;88.70;;;2.70;96.00;;;;;;5063352;28;20030;-78
2023/01/18 02:03:49;;;;;;;87.07;83.78;;;2.70;95.90;;;;;;5064659;28;20025;-78
2023/01/18 02:06:32;;;;;;;93.07;89.57;;;2.60;95.80;;;;;;5047693;28;20035;-78
2023/01/18 02:09:04;;;;;;;93.60;90.03;;;2.60;95.80;;;;;;5065505;28;20032;-78
2023/01/18 02:11:29;;;;;;;95.82;92.22;;;2.50;95.80;;;;;;5066896;28;20025;-78
2023/01/18 02:13:59;;;;;;;97.00;93.30;;;2.40;95.70;;;;;;5066208;28;20420;-78
2023/01/18 02:17:16;;;;;;;97.60;93.90;;;2.30;95.70;;;;;;5064170;28;20031;-77
2023/01/18 02:20:05;;;;;;;99.03;95.25;;;2.20;95.80;;;;;;5039838;28;20542;-78
2023/01/18 02:22:53;;;;;;;102.30;98.40;;;2.10;95.80;;;;;;5067123;28;20025;-78
2023/01/18 02:25:29;;;;;;;;;;;2.10;95.90;;;;;;5067396;28;20036;-77
2023/01/18 02:28:07;;;;;;;100.40;96.60;;;2.10;95.90;;;;;;5067744;28;19908;-78
2023/01/18 02:31:12;;;;;;;99.40;95.60;;;2.10;95.90;;;;;;5066955;28;20009;-78
2023/01/18 02:33:37;;;;;;;96.70;93.05;;;2.20;96.00;;;;;;5066525;28;20020;-78
2023/01/18 02:36:05;;;;;;;98.95;95.15;;;2.20;96.00;;;;;;5067134;28;20005;-78
2023/01/18 02:38:44;;;;;;;95.22;91.63;;;2.20;96.00;;;;;;5068270;28;20021;-78
2023/01/18 02:46:29;;;;;;;95.47;91.88;;;2.20;96.00;;;;;;5070334;28;20021;-78
2023/01/18 02:47:05;;;;;;;92.07;88.57;;;2.40;96.00;;;;;;5071173;28;20035;-78
2023/01/18 02:49:31;;;;;;;97.45;93.75;;;2.40;95.90;;;;;;5068955;28;20056;-78
2023/01/18 02:52:07;;;;;;;94.85;91.25;;;2.40;95.90;;;;;;5069236;28;20025;-78
2023/01/18 02:54:37;;;;;;;92.85;89.28;;;2.40;95.90;;;;;;5071386;28;20029;-78
2023/01/18 02:57:11;;;;;;;97.35;93.60;;;2.40;95.80;;;;;;5071238;28;20017;-77
2023/01/18 02:59:45;;;;;;;97.00;93.30;;;2.30;95.80;;;;;;5069444;28;20029;-78
2023/01/18 03:02:16;;;;;;;102.22;98.32;;;2.20;95.70;;;;;;5066512;28;20043;-79
2023/01/18 03:04:52;;;;;;;105.38;101.35;;;2.10;95.70;;;;;;5060245;28;20406;-78
2023/01/18 03:07:34;;;;;;;97.75;93.97;;;2.00;95.70;;;;;;5050663;28;20017;-78
2023/01/18 03:10:04;;;;;;;103.88;99.88;;;2.00;95.80;;;;;;5052211;28;20057;-78
2023/01/18 03:12:47;;;;;;;103.80;99.80;;;1.90;95.90;;;;;;5053515;28;20041;-78
2023/01/18 03:15:43;;;;;;;101.65;97.75;;;2.00;96.20;;;;;;5054274;28;20025;-79
2023/01/18 03:18:37;;;;;;;103.07;99.15;;;2.00;96.00;;;;;;5055082;28;20355;-78
2023/01/18 03:21:06;;;;;;;104.13;100.13;;;2.00;95.90;;;;;;5061950;28;20440;-78
2023/01/18 03:23:36;;;;;;;102.72;98.80;;;2.00;95.80;;;;;;5060553;28;20560;-78
2023/01/18 03:26:05;;;;;;;106.00;101.90;;;1.90;95.80;;;;;;5062201;28;20039;-78
2023/01/18 03:34:31;;;;;;;103.43;99.43;;;1.80;95.80;;;;;;5068066;28;20044;-78
2023/01/18 03:37:01;;;;;;;106.63;102.53;;;1.70;95.80;;;;;;5068041;28;20041;-79
2023/01/18 03:39:37;;;;;;;107.90;103.75;;;1.70;95.90;;;;;;5065290;28;20030;-79
2023/01/18 03:42:10;;;;;;;108.15;103.95;;;1.70;95.90;;;;;;5067639;28;20051;-79
2023/01/18 03:44:40;;;;;;;105.55;101.45;;;1.70;95.90;;;;;;5067571;28;20021;-78
2023/01/18 03:47:06;;;;;;;104.95;100.93;;;1.70;95.90;;;;;;5068255;28;20055;-78
2023/01/18 03:49:33;;;;;;;108.55;104.35;;;1.70;95.90;;;;;;5065354;28;20117;-78
2023/01/18 03:52:08;;;;;;;108.70;104.50;;;1.70;95.90;;;;;;5067148;28;20043;-78
2023/01/18 03:54:44;;;;;;;106.95;102.85;;;1.70;95.90;;;;;;5066101;28;20027;-78
2023/01/18 03:57:37;;;;;;;108.60;104.40;;;1.70;95.90;;;;;;5068761;28;20124;-78
2023/01/18 04:00:06;;;;;;;107.00;102.90;;;1.70;95.80;;;;;;5063867;28;20025;-78
2023/01/18 04:02:32;;;;;;;106.22;102.13;;;1.60;95.80;;;;;;5059635;28;20033;-78
2023/01/18 04:05:02;;;;;;;112.78;108.43;;;1.60;95.90;;;;;;5054557;28;20056;-78
2023/01/18 04:07:30;;;;;;;107.90;103.72;;;1.60;95.90;;;;;;5054096;28;20036;-78
2023/01/18 04:09:58;;;;;;;108.95;104.75;;;1.60;95.90;;;;;;5040759;28;20045;-78
2023/01/18 04:12:24;;;;;;;107.78;103.57;;;1.60;95.90;;;;;;5061960;28;20024;-78
2023/01/18 04:14:49;;;;;;;106.35;102.25;;;1.50;95.80;;;;;;5066646;28;20051;-78
2023/01/18 04:17:16;;;;;;;111.75;107.45;;;1.50;95.80;;;;;;5064195;28;20046;-78
2023/01/18 04:19:42;;;;;;;110.57;106.38;;;1.50;95.80;;;;;;5061830;28;20031;-78
2023/01/18 04:22:08;;;;;;;107.68;103.57;;;1.50;95.80;;;;;;5061936;28;20036;-78
2023/01/18 04:24:34;;;;;;;107.10;103.00;;;1.50;95.80;;;;;;5044617;28;20033;-79
2023/01/18 04:27:00;;;;;;;107.63;103.50;;;1.50;96.10;;;;;;5062282;28;20165;-79
2023/01/18 04:29:27;;;;;;;107.40;103.28;;;1.40;95.80;;;;;;5064810;28;20029;-79
2023/01/18 04:31:52;;;;;;;106.13;102.03;;;1.40;95.80;;;;;;5064824;28;20025;-78
2023/01/18 04:34:21;;;;;;;109.35;105.15;;;1.40;95.80;;;;;;5057645;28;20541;-78
2023/01/18 04:36:46;;;;;;;104.70;100.70;;;1.40;95.90;;;;;;5053272;28;20533;-78
2023/01/18 04:39:13;;;;;;;108.32;104.15;;;1.40;95.90;;;;;;5053568;28;20021;-78
2023/01/18 04:41:38;;;;;;;;;;;1.40;95.90;;;;;;5059596;28;20064;-79
2023/01/18 04:44:04;;;;;;;102.65;98.75;;;1.40;95.80;;;;;;5058945;28;19912;-79
2023/01/18 04:46:30;;;;;;;105.13;101.13;;;1.40;95.80;;;;;;5060338;28;20458;-79
2023/01/18 04:48:56;;;;;;;106.95;102.85;;;1.40;95.80;;;;;;5042356;28;20132;-78
2023/01/18 04:51:22;;;;;;;106.63;102.53;;;1.40;95.80;;;;;;5059503;28;20025;-79
2023/01/18 04:53:48;;;;;;;101.00;97.10;;;1.30;95.80;;;;;;5063081;28;20478;-79
2023/01/18 04:56:15;;;;;;;104.80;100.70;;;1.30;95.80;;;;;;5059363;28;20037;-79
2023/01/18 04:58:41;;;;;;;104.95;100.85;;;1.30;95.90;;;;;;5057749;28;20120;-79
2023/01/18 05:01:08;;;;;;;100.32;96.43;;;1.40;95.90;;;;;;5061819;28;20049;-79
2023/01/18 05:03:37;;;;;;;102.55;98.55;;;1.40;95.90;;;;;;5059033;28;20029;-78
2023/01/18 05:06:23;;;;;;;100.72;96.82;;;1.40;95.90;;;;;;5038568;28;20473;-78
2023/01/18 05:08:49;;;;;;;102.28;98.28;;;1.50;95.90;;;;;;5058517;28;20021;-78
2023/01/18 05:11:18;;;;;;;106.35;102.25;;;1.40;95.90;;;;;;5063802;28;20049;-79
2023/01/18 05:13:44;;;;;;;103.53;99.53;;;1.50;95.90;;;;;;5061782;28;20013;-79
2023/01/18 05:16:17;;;;;;;103.38;99.32;;;1.50;95.90;;;;;;5063885;28;20025;-79
2023/01/18 05:18:43;;;;;;;107.78;103.57;;;1.50;95.90;;;;;;5061535;28;20028;-79
2023/01/18 05:21:10;;;;;;;106.05;101.95;;;1.60;96.00;;;;;;5062267;28;20055;-79
2023/01/18 05:23:36;;;;;;;102.75;98.75;;;1.60;96.00;;;;;;5062624;28;20520;-78
2023/01/18 05:26:03;;;;;;;101.85;97.93;;;1.70;96.00;;;;;;5062945;28;20090;-78
2023/01/18 05:28:29;;;;;;;103.03;99.05;;;1.70;96.10;;;;;;5063159;28;20040;-79
2023/01/18 05:30:54;;;;;;;107.32;103.20;;;1.80;96.10;;;;;;5062226;28;20521;-78
2023/01/18 05:33:21;;;;;;;103.85;99.85;;;1.80;96.00;;;;;;5047657;28;20037;-79
2023/01/18 05:35:51;;;;;;;101.57;97.68;;;1.90;96.00;;;;;;5066000;28;20021;-78
2023/01/18 05:38:18;;;;;;;98.22;94.45;;;2.00;96.00;;;;;;5067177;28;20042;-78
2023/01/18 05:40:45;;;;;;;100.32;96.53;;;2.00;96.00;;;;;;5066549;28;20032;-78
2023/01/18 05:43:11;;;;;;;95.82;92.15;;;2.10;96.00;;;;;;5066049;28;20033;-79
2023/01/18 05:45:37;;;;;;;97.30;93.60;;;2.10;96.00;;;;;;5066602;28;20079;-78
2023/01/18 05:48:03;;;;;;;95.22;91.60;;;2.20;96.00;;;;;;5068946;28;20516;-78
2023/01/18 05:50:29;;;;;;;101.20;97.40;;;2.20;96.00;;;;;;5065281;28;20394;-78
2023/01/18 05:52:58;;;;;;;97.50;93.82;;;2.20;96.00;;;;;;5066395;28;20068;-79
2023/01/18 05:55:25;;;;;;;95.38;91.78;;;2.30;96.00;;;;;;5068199;28;20017;-79
2023/01/18 05:57:51;;;;;;;94.75;91.15;;;2.30;96.00;;;;;;5068667;28;20064;-78
2023/01/18 06:00:17;;;;;;;93.20;89.70;;;2.20;95.90;;;;;;5062905;28;20416;-78
2023/01/18 06:02:43;;;;;;;95.60;91.93;;;2.20;95.90;;;;;;5067869;28;20045;-78
2023/01/18 06:05:09;;;;;;;94.05;90.45;;;2.10;95.80;;;;;;5051560;28;20115;-78
2023/01/18 06:07:34;;;;;;;92.15;88.55;;;2.10;95.80;;;;;;5053941;28;20037;-78
2023/01/18 06:10:00;;;;;;;95.47;91.78;;;2.00;95.80;;;;;;5062657;28;20029;-78
2023/01/18 06:12:26;;;;;;;94.20;90.50;;;1.90;95.90;;;;;;5067856;28;20025;-78
2023/01/18 06:14:51;;;;;;;94.32;90.72;;;1.80;95.80;;;;;;5071141;28;20070;-78
2023/01/18 06:17:17;;;;;;;92.30;88.70;;;1.80;95.90;;;;;;5070174;28;20033;-79
2023/01/18 06:19:43;;;;;;;96.80;93.10;;;1.70;95.90;;;;;;5050754;28;20029;-78
2023/01/18 06:22:08;;;;;;;96.82;93.13;;;1.70;95.90;;;;;;5064411;28;20029;-78
2023/01/18 06:24:34;;;;;;;93.68;90.07;;;1.70;95.90;;;;;;5056954;28;20429;-78
2023/01/18 06:27:01;;;;;;;89.45;86.03;;;1.70;95.90;;;;;;5057669;28;20032;-79
2023/01/18 06:29:27;;;;;;;89.88;86.43;;;1.60;95.90;;;;;;5066234;28;20121;-78
2023/01/18 06:31:53;;;;;;;94.72;91.07;;;1.60;96.00;;;;;;5045975;28;20029;-77
2023/01/18 06:34:18;;;;;;;93.00;89.40;;;1.60;96.00;;;;;;5059396;28;20071;-78
2023/01/18 06:36:44;;;;;;;94.95;91.35;;;1.60;96.00;;;;;;5058657;28;20083;-79
2023/01/18 06:39:10;;;;;;;90.07;86.63;;;1.60;96.00;;;;;;5059143;28;20472;-79
2023/01/18 06:41:36;;;;;;;96.03;92.32;;;1.50;95.90;;;;;;5060364;28;20027;-79
2023/01/18 06:44:02;;;;;;;91.45;87.95;;;1.60;96.00;;;;;;5060941;28;20029;-79
2023/01/18 06:46:28;;;;;;;;;;;1.50;96.00;;;;;;5063837;28;20032;-78
2023/01/18 06:48:54;;;;;;;93.05;89.55;;;1.50;96.00;;;;;;5062064;28;20420;-78
2023/01/18 06:51:20;;;;;;;99.30;95.50;;;1.60;96.00;;;;;;5063352;28;20385;-79
2023/01/18 06:53:47;;;;;;;98.25;94.55;;;1.50;96.00;;;;;;5064592;28;20082;-78
2023/01/18 06:56:13;;;;;;;95.35;91.75;;;1.50;96.00;;;;;;5046295;28;20314;-78
2023/01/18 06:58:39;;;;;;;97.28;93.55;;;1.50;96.00;;;;;;5060490;28;20049;-78
2023/01/18 07:01:05;;;;;;;95.32;91.68;;;1.50;96.00;;;;;;5059417;28;20036;-78
2023/01/18 07:03:31;;;;;;;93.97;90.38;;;1.50;96.00;;;;;;5063049;28;20425;-78
2023/01/18 07:05:59;;;;;;;91.93;88.43;;;1.60;96.00;;;;;;5062412;28;20044;-78
2023/01/18 07:08:27;;;;;;;91.47;87.97;;;1.60;96.10;;;;;;5064594;28;20029;-78
2023/01/18 07:10:53;;;;;;;92.40;88.90;;;1.60;96.10;;;;;;5062402;28;20021;-79
2023/01/18 07:13:19;;;;;;;91.10;87.60;;;1.60;96.10;;;;;;5063392;28;20029;-79
2023/01/18 07:15:50;;;;;;;93.30;89.80;;;1.60;96.10;;;;;;5059203;28;20071;-79
2023/01/18 07:18:16;;;;;;;83.53;80.32;;;1.70;96.20;;;;;;5062016;28;20462;-78
2023/01/18 07:20:42;;;;;;;84.57;81.35;;;1.70;96.10;;;;;;5062521;28;20043;-78
2023/01/18 07:23:07;;;;;;;86.05;82.80;;;1.80;96.10;;;;;;5046249;28;20561;-79
2023/01/18 07:25:33;;;;;;;85.85;82.60;;;1.90;96.10;;;;;;5066409;28;20035;-79
2023/01/18 07:27:59;;;;;;;81.07;77.97;;;1.90;96.10;;;;;;5064962;28;20049;-78
2023/01/18 07:30:24;;;;;;;85.88;82.68;;;1.90;96.10;;;;;;5047887;28;20605;-78
2023/01/18 07:32:52;;;;;;;84.05;80.88;;;1.90;96.10;;;;;;5030622;28;20048;-78
2023/01/18 07:35:22;;;;;;;78.70;75.70;;;2.00;96.20;;;;;;5046158;28;20021;-78
2023/01/18 07:37:51;;;;;;;81.60;78.50;;;2.00;96.20;;;;;;5047129;28;20022;-78
2023/01/18 07:40:16;;;;;;;82.10;79.00;;;2.10;96.20;;;;;;5045872;28;20029;-78
2023/01/18 07:42:42;;;;;;;84.43;81.22;;;2.10;96.20;;;;;;5046533;28;20028;-78
2023/01/18 07:45:09;;;;;;;88.35;85.05;;;2.20;96.30;;;;;;5046614;28;20033;-78
2023/01/18 07:47:35;;;;;;;85.50;82.25;;;2.20;96.20;;;;;;5047462;28;20041;-78
2023/01/18 07:50:01;;;;;;;87.15;83.85;;;2.30;96.30;;;;;;5050978;28;20037;-78
2023/01/18 07:52:27;;;;;;;84.28;81.07;;;2.30;96.20;;;;;;5049505;28;20385;-78
2023/01/18 07:54:52;;;;;;;89.50;86.10;;;2.40;96.20;;;;;;5050576;28;20033;-78
2023/01/18 07:57:18;;;;;;;79.25;76.18;;;2.40;96.20;;;;;;5049245;28;20108;-78
2023/01/18 07:59:44;;;;;;;81.07;77.97;;;2.50;96.20;;;;;;5049469;28;20025;-78
2023/01/18 08:02:12;;;;;;;84.80;81.60;;;2.50;96.20;;;;;;5050474;28;20091;-78
2023/01/18 08:04:39;;;;;;;80.53;77.43;;;2.50;96.20;;;;;;5050351;28;20024;-77
2023/01/18 08:07:05;;;;;;;78.43;75.43;;;2.60;96.20;;;;;;5049962;28;20117;-79
2023/01/18 08:09:34;;;;;;;76.88;73.97;;;2.60;96.30;;;;;;5049171;28;20025;-77
2023/01/18 08:12:00;;;;;;;75.13;72.32;;;2.60;96.20;;;;;;5050619;28;20021;-78
2023/01/18 08:14:26;;;;;;;75.03;72.22;;;2.60;96.20;;;;;;5050425;28;20327;-78
2023/01/18 08:16:52;;;;;;;76.10;73.25;;;2.60;96.10;;;;;;5051366;28;20062;-79
2023/01/18 08:19:17;;;;;;;72.10;69.40;;;2.60;96.10;;;;;;5050115;28;20040;-78
2023/01/18 08:21:44;;;;;;;74.65;71.85;;;2.50;96.10;;;;;;5050546;28;20173;-78
2023/01/18 08:24:10;;;;;;;72.20;69.50;;;2.50;96.10;;;;;;5050556;28;20424;-78
2023/01/18 08:26:35;;;;;;;70.93;68.22;;;2.50;96.10;;;;;;5032134;28;20131;-78
2023/01/18 08:29:01;;;;;;;70.90;68.22;;;2.40;96.10;;;;;;5048827;28;20041;-77
2023/01/18 08:31:27;;;;;;;70.20;67.50;;;2.40;96.10;;;;;;5050096;28;20031;-77
2023/01/18 08:33:52;;;;;;;70.18;67.55;;;2.40;96.10;;;;;;5032228;28;20033;-75
2023/01/18 08:36:21;;;;;;;66.90;64.38;;;2.40;96.10;;;;;;5050472;28;20029;-77
2023/01/18 08:38:52;;;;;;;68.90;66.30;;;2.40;96.10;;;;;;5050096;28;20041;-79
2023/01/18 08:41:19;;;;;;;62.80;60.40;;;2.50;96.20;;;;;;5049599;28;20028;-77
2023/01/18 08:43:49;;;;;;;60.80;58.50;;;2.50;96.20;;;;;;5031703;28;20041;-78
2023/01/18 08:46:15;;;;;;;61.60;59.28;;;2.60;96.30;;;;;;5049567;28;20037;-78
2023/01/18 08:48:42;;;;;;;;;;;2.70;96.40;;;;;;5050371;28;20021;-78
2023/01/18 08:51:08;;;;;;;53.20;51.20;;;2.80;96.50;;;;;;5049695;28;19919;-77
2023/01/18 08:53:34;;;;;;;51.83;49.83;;;3.00;96.50;;;;;;5049575;28;20063;-78
2023/01/18 08:56:03;;;;;;;50.45;48.55;;;3.10;96.50;;;;;;5049156;28;20032;-78
2023/01/18 08:58:30;;;;;;;50.25;48.35;;;3.30;96.70;;;;;;5031232;28;20076;-78
2023/01/18 09:00:56;;;;;;;50.80;48.90;;;3.40;96.40;;;;;;5048481;28;20025;-78
2023/01/18 09:03:22;;;;;;;49.72;47.83;;;3.50;96.40;;;;;;5051138;28;20031;-78
2023/01/18 09:05:49;;;;;;;48.38;46.58;;;3.60;96.30;;;;;;5048080;28;20037;-76
2023/01/18 09:08:16;;;;;;;50.85;48.95;;;3.60;96.30;;;;;;5048943;28;20056;-76
2023/01/18 09:10:41;;;;;;;49.00;47.20;;;3.60;96.20;;;;;;5049624;28;20029;-77
2023/01/18 09:13:09;;;;;;;50.35;48.45;;;3.70;96.20;;;;;;5050806;28;20564;-78
2023/01/18 09:15:35;;;;;;;50.15;48.28;;;3.70;96.20;;;;;;5051126;28;20066;-76
2023/01/18 09:18:04;;;;;;;53.22;51.22;;;3.60;96.20;;;;;;5042722;28;20026;-76
2023/01/18 09:20:32;;;;;;;50.63;48.72;;;3.60;96.20;;;;;;5044030;28;20048;-76
2023/01/18 09:22:58;;;;;;;52.75;50.78;;;3.60;96.20;;;;;;5039234;28;20032;-76
2023/01/18 09:25:24;;;;;;;51.42;49.53;;;3.60;96.20;;;;;;5040024;28;20021;-77
2023/01/18 09:27:50;;;;;;;56.45;54.35;;;3.60;96.20;;;;;;5024906;28;20041;-76
2023/01/18 09:30:16;;;;;;;52.35;50.35;;;3.60;96.20;;;;;;5041288;28;20025;-77
2023/01/18 09:32:41;;;;;;;51.90;50.00;;;3.60;96.20;;;;;;5041415;28;20095;-76
2023/01/18 09:35:08;;;;;;;53.33;51.33;;;3.60;96.30;;;;;;5022843;28;20033;-76
2023/01/18 09:37:33;;;;;;;52.05;50.10;;;3.60;96.30;;;;;;5039675;28;20029;-76
2023/01/18 09:39:59;;;;;;;57.90;55.72;;;3.60;96.50;;;;;;5039715;28;20021;-76
2023/01/18 09:42:34;;;;;;;56.40;54.30;;;3.50;96.20;;;;;;5040867;28;20041;-76
2023/01/18 09:45:00;;;;;;;55.53;53.42;;;3.40;96.20;;;;;;5036423;28;20026;-76
2023/01/18 09:47:32;;;;;;;;;;;3.40;96.20;;;;;;5042655;28;20473;-76
2023/01/18 09:50:01;;;;;;;50.65;48.75;;;3.30;96.30;;;;;;5038741;28;20360;-76
2023/01/18 09:53:05;;;;;;;39.03;37.53;;;3.40;96.50;;;;;;5038199;28;20057;-77
2023/01/18 09:55:36;;;;;;;41.15;39.65;;;3.90;97.40;;;;;;5038654;28;20108;-76
2023/01/18 09:58:17;;;;;;;42.47;40.88;;;4.20;96.90;;;;;;5039630;28;20128;-77
2023/01/18 10:00:46;;;;;;;37.20;35.80;;;4.30;96.70;;;;;;5040585;28;20096;-77
2023/01/18 10:03:18;;;;;;;39.17;37.67;;;4.50;96.90;;;;;;5040524;28;20033;-76
2023/01/18 10:06:07;;;;;;;39.75;38.25;;;4.60;96.60;;;;;;5039863;28;20351;-76
2023/01/18 10:08:41;;;;;;;33.67;32.38;;;4.70;96.60;;;;;;5049039;28;20024;-77
2023/01/18 10:11:36;;;;;;;30.00;28.90;;;4.90;97.00;;;;;;5048877;28;20021;-76
2023/01/18 10:14:39;;;;;;;33.05;31.80;;;5.20;96.90;;;;;;5049841;28;20068;-76
2023/01/18 10:17:13;;;;;;;36.35;34.95;;;5.20;96.50;;;;;;5048942;28;20036;-76
2023/01/18 10:19:39;;;;;;;36.85;35.45;;;5.00;96.20;;;;;;5049900;28;20017;-76
2023/01/18 10:22:25;;;;;;;36.17;34.78;;;4.90;96.30;;;;;;5047728;28;20438;-76
2023/01/18 10:24:58;;;;;;;37.53;36.13;;;4.90;96.40;;;;;;5037100;28;20037;-76
2023/01/18 10:27:36;;;;;;;40.80;39.30;;;4.90;96.30;;;;;;5037379;28;20323;-76
2023/01/18 10:30:02;;;;;;;39.08;37.58;;;4.70;96.20;;;;;;5039205;28;20386;-75
2023/01/18 10:32:32;;;;;;;39.25;37.75;;;4.80;96.50;;;;;;5037322;28;20028;-76
2023/01/18 10:34:59;;;;;;;40.00;38.50;;;4.90;96.60;;;;;;5043193;28;20022;-75
2023/01/18 10:37:32;;;;;;;37.47;36.08;;;4.90;96.50;;;;;;5037363;28;20055;-76
2023/01/18 10:40:04;;;;;;;38.95;37.50;;;4.90;96.40;;;;;;5037012;28;20029;-76
2023/01/18 10:42:41;;;;;;;36.20;34.80;;;4.80;96.30;;;;;;5047104;28;20372;-76
2023/01/18 10:45:20;;;;;;;;;;;4.90;96.80;;;;;;5040182;28;20028;-76
2023/01/18 10:47:50;;;;;;;20.77;19.98;;;5.10;97.30;;;;;;5039323;28;20256;-76
2023/01/18 10:50:19;;;;;;;12.95;12.35;;;5.70;97.80;;;;;;5038435;28;20386;-76
2023/01/18 10:52:45;;;;;;;12.50;11.90;;;6.50;98.20;;;;;;5041950;28;20029;-76
2023/01/18 10:55:18;;;;;;;10.75;10.25;;;7.30;98.30;;;;;;5038129;28;20028;-76
2023/01/18 10:57:50;;;;;;;7.47;7.07;;;7.90;98.00;;;;;;5042433;28;20498;-76
2023/01/18 11:00:33;;;;;;;5.50;5.20;;;8.70;98.10;;;;;;5036874;28;20032;-76
2023/01/18 11:03:02;;;;;;;3.28;3.08;;;9.70;98.40;;;;;;5035871;28;20033;-78
2023/01/18 11:05:37;;;;;;;2.30;2.10;;;10.30;97.70;;;;;;5040702;28;20023;-75
2023/01/18 11:08:31;;;;;;;2.15;1.98;;;10.50;97.30;;;;;;5041658;28;20044;-77
2023/01/18 11:14:41;;;;;;;5.07;4.78;;;9.80;96.30;;;;;;5038606;28;20043;-77
2023/01/18 11:17:11;;;;;;;4.85;4.55;;;9.20;96.50;;;;;;5047332;28;20119;-75
2023/01/18 11:19:38;;;;;;;8.45;8.05;;;8.70;96.10;;;;;;5014447;28;20056;-76
2023/01/18 11:22:11;;;;;;;11.80;11.30;;;8.20;96.10;;;;;;5045703;28;20083;-77
2023/01/18 11:24:38;;;;;;;11.25;10.75;;;7.80;96.70;;;;;;5037520;28;20028;-77
2023/01/18 11:27:22;;;;;;;9.75;9.25;;;7.90;97.00;;;;;;5034562;28;20034;-78
2023/01/18 11:29:48;;;;;;;8.65;8.25;;;8.00;97.30;;;;;;5045620;28;20059;-77
2023/01/18 11:32:26;;;;;;;7.88;7.47;;;8.10;97.50;;;;;;5032520;28;20064;-77
2023/01/18 11:34:59;;;;;;;8.10;7.70;;;8.40;97.30;;;;;;5037711;28;20458;-76
2023/01/18 11:37:44;;;;;;;9.40;8.95;;;8.30;96.80;;;;;;5033626;28;20040;-77
2023/01/18 11:40:25;;;;;;;12.10;11.60;;;8.00;96.40;;;;;;5039665;28;20044;-77
2023/01/18 11:42:56;;;;;;;15.10;14.50;;;7.60;96.50;;;;;;5032289;28;20056;-77
2023/01/18 11:45:34;;;;;;;14.88;14.27;;;7.30;96.30;;;;;;5032818;28;20144;-77
2023/01/18 11:48:32;;;;;;;15.82;15.13;;;7.10;96.50;;;;;;5047524;28;20025;-77
2023/01/18 11:51:01;;;;;;;18.48;17.67;;;6.90;96.50;;;;;;5035058;28;20103;-76
2023/01/18 11:53:53;;;;;;;20.35;19.55;;;6.80;96.50;;;;;;5034323;28;20020;-77
2023/01/18 11:56:31;;;;;;;21.58;20.67;;;6.60;96.50;;;;;;5045635;28;20196;-75
2023/01/18 11:58:57;;;;;;;21.40;20.55;;;6.60;96.60;;;;;;5032692;28;20049;-75
2023/01/18 12:01:44;;;;;;;24.98;23.98;;;6.50;96.60;;;;;;5032105;28;20040;-75
2023/01/18 12:04:25;;;;;;;23.75;22.85;;;6.40;96.60;;;;;;5040021;28;20025;-74
2023/01/18 12:07:29;;;;;;;25.95;24.95;;;6.30;96.50;;;;;;5032074;28;20066;-76
2023/01/18 12:09:57;;;;;;;27.40;26.33;;;6.20;96.50;;;;;;5028552;28;20057;-76
2023/01/18 12:12:32;;;;;;;27.13;26.13;;;6.10;96.50;;;;;;5042940;28;20029;-75
2023/01/18 12:15:41;;;;;;;26.75;25.75;;;6.00;96.50;;;;;;5034435;28;20018;-76
2023/01/18 12:18:43;;;;;;;26.40;25.40;;;6.00;96.60;;;;;;5036429;28;20038;-75
2023/01/18 12:21:42;;;;;;;25.08;24.08;;;6.00;96.50;;;;;;5035470;28;20029;-75
2023/01/18 12:24:39;;;;;;;24.55;23.55;;;5.90;96.50;;;;;;5040443;28;20102;-76
2023/01/18 12:27:38;;;;;;;27.92;26.83;;;5.80;96.50;;;;;;5031583;28;20051;-74
2023/01/18 12:30:11;;;;;;;28.23;27.13;;;5.80;96.50;;;;;;5035739;28;20478;-75
2023/01/18 12:33:17;;;;;;;27.00;26.00;;;5.70;96.50;;;;;;5035040;28;20037;-75
2023/01/18 12:36:12;;;;;;;24.85;23.85;;;5.70;96.60;;;;;;5040722;28;20067;-74
2023/01/18 12:38:47;;;;;;;25.05;24.05;;;5.70;96.60;;;;;;5038555;28;20021;-75
2023/01/18 12:41:54;;;;;;;23.83;22.92;;;5.80;96.70;;;;;;5037859;28;20139;-73
2023/01/18 12:44:52;;;;;;;23.10;22.20;;;5.90;96.70;;;;;;5003970;28;20105;-77
2023/01/18 12:47:31;;;;;;;;;;;6.00;96.70;;;;;;5036519;28;20071;-73
2023/01/18 12:50:01;;;;;;;21.85;20.95;;;6.00;96.60;;;;;;5037949;28;19905;-73
2023/01/18 12:52:28;;;;;;;22.67;21.77;;;6.00;96.50;;;;;;5040669;28;20028;-73
2023/01/18 12:54:58;;;;;;;23.27;22.38;;;6.00;96.60;;;;;;5040698;28;20026;-77
2023/01/18 12:57:25;;;;;;;25.88;24.88;;;6.00;96.70;;;;;;5038361;28;20115;-77
2023/01/18 13:00:14;;;;;;;26.52;25.52;;;6.00;96.50;;;;;;5036612;28;20025;-76
2023/01/18 13:02:44;;;;;;;28.02;26.92;;;6.00;96.50;;;;;;5024904;28;20035;-77
2023/01/18 13:05:22;;;;;;;30.27;29.13;;;6.00;96.50;;;;;;5034706;28;20028;-74
2023/01/18 13:08:00;;;;;;;28.08;26.98;;;6.00;96.50;;;;;;5039444;28;20029;-76
2023/01/18 13:10:27;;;;;;;28.90;27.80;;;5.90;96.50;;;;;;5035350;28;20017;-75
2023/01/18 13:12:56;;;;;;;29.67;28.58;;;5.90;96.50;;;;;;5042413;28;20025;-75
2023/01/18 13:15:49;;;;;;;30.10;29.00;;;5.90;96.50;;;;;;5037764;28;20071;-75
2023/01/18 13:18:30;;;;;;;31.40;30.20;;;6.00;96.50;;;;;;5034292;28;20029;-75
2023/01/18 13:21:10;;;;;;;33.13;31.88;;;6.00;96.50;;;;;;5036899;28;20017;-74
2023/01/18 13:23:54;;;;;;;33.22;31.95;;;5.90;96.50;;;;;;5039732;28;20025;-75
2023/01/18 13:26:32;;;;;;;31.70;30.50;;;5.90;96.40;;;;;;5038827;28;20097;-75
2023/01/18 13:29:22;;;;;;;31.30;30.10;;;5.80;96.50;;;;;;5047185;28;20036;-75